sensor_id;sensor_type;location;lat;lon;timestamp;P1;durP1;ratioP1;P2;durP2;ratioP2
17253;SDS011;32542;52.832;13.816;2022-07-23T00:01:34;3.80;;;2.80;;
17253;SDS011;32542;52.832;13.816;2022-07-23T00:04:38;3.67;;;2.65;;
17253;SDS011;32542;52.832;13.816;2022-07-23T00:07:41;4.07;;;2.85;;
17253;SDS011;32542;52.832;13.816;2022-07-23T00:10:44;3.35;;;2.67;;
17253;SDS011;32542;52.832;13.816;2022-07-23T00:13:47;3.35;;;2.70;;
17253;SDS011;32542;52.832;13.816;2022-07-23T00:16:50;3.38;;;2.90;;
17253;SDS011;32542;52.832;13.816;2022-07-23T00:19:55;3.17;;;2.72;;
17253;SDS011;32542;52.832;13.816;2022-07-23T00:22:58;2.95;;;2.65;;
17253;SDS011;32542;52.832;13.816;2022-07-23T00:26:01;4.03;;;2.85;;
17253;SDS011;32542;52.832;13.816;2022-07-23T00:29:04;3.42;;;3.00;;
17253;SDS011;32542;52.832;13.816;2022-07-23T00:32:07;6.50;;;2.85;;
17253;SDS011;32542;52.832;13.816;2022-07-23T00:35:12;2.78;;;2.50;;
17253;SDS011;32542;52.832;13.816;2022-07-23T00:38:15;3.03;;;2.63;;
17253;SDS011;32542;52.832;13.816;2022-07-23T00:41:18;3.70;;;2.72;;
17253;SDS011;32542;52.832;13.816;2022-07-23T00:44:22;3.03;;;2.72;;
17253;SDS011;32542;52.832;13.816;2022-07-23T00:47:26;3.65;;;2.80;;
17253;SDS011;32542;52.832;13.816;2022-07-23T00:50:30;3.65;;;2.90;;
17253;SDS011;32542;52.832;13.816;2022-07-23T00:53:33;2.78;;;2.45;;
17253;SDS011;32542;52.832;13.816;2022-07-23T00:56:37;3.70;;;2.63;;
17253;SDS011;32542;52.832;13.816;2022-07-23T00:59:42;4.55;;;2.95;;
17253;SDS011;32542;52.832;13.816;2022-07-23T01:02:46;4.60;;;2.80;;
17253;SDS011;32542;52.832;13.816;2022-07-23T01:05:50;3.08;;;2.72;;
17253;SDS011;32542;52.832;13.816;2022-07-23T01:08:53;3.65;;;2.90;;
17253;SDS011;32542;52.832;13.816;2022-07-23T01:11:57;3.38;;;2.75;;
17253;SDS011;32542;52.832;13.816;2022-07-23T01:15:02;4.72;;;3.13;;
17253;SDS011;32542;52.832;13.816;2022-07-23T01:18:06;4.03;;;2.85;;
17253;SDS011;32542;52.832;13.816;2022-07-23T01:21:13;4.70;;;3.30;;
17253;SDS011;32542;52.832;13.816;2022-07-23T01:24:21;3.80;;;2.50;;
17253;SDS011;32542;52.832;13.816;2022-07-23T01:27:34;3.55;;;2.85;;
17253;SDS011;32542;52.832;13.816;2022-07-23T01:30:38;4.93;;;2.92;;
17253;SDS011;32542;52.832;13.816;2022-07-23T01:33:42;4.03;;;3.05;;
17253;SDS011;32542;52.832;13.816;2022-07-23T01:36:45;4.05;;;3.38;;
17253;SDS011;32542;52.832;13.816;2022-07-23T01:39:51;5.95;;;2.97;;
17253;SDS011;32542;52.832;13.816;2022-07-23T01:42:55;4.05;;;3.00;;
17253;SDS011;32542;52.832;13.816;2022-07-23T01:45:58;4.32;;;3.60;;
17253;SDS011;32542;52.832;13.816;2022-07-23T01:49:07;3.83;;;2.92;;
17253;SDS011;32542;52.832;13.816;2022-07-23T01:52:39;3.45;;;2.95;;
17253;SDS011;32542;52.832;13.816;2022-07-23T01:55:44;5.63;;;3.15;;
17253;SDS011;32542;52.832;13.816;2022-07-23T01:58:47;4.07;;;2.40;;
17253;SDS011;32542;52.832;13.816;2022-07-23T02:01:50;4.70;;;3.03;;
17253;SDS011;32542;52.832;13.816;2022-07-23T02:04:53;2.95;;;2.60;;
17253;SDS011;32542;52.832;13.816;2022-07-23T02:08:00;3.28;;;2.90;;
17253;SDS011;32542;52.832;13.816;2022-07-23T02:11:09;3.10;;;2.80;;
17253;SDS011;32542;52.832;13.816;2022-07-23T02:14:12;3.85;;;3.20;;
17253;SDS011;32542;52.832;13.816;2022-07-23T02:17:15;4.43;;;2.90;;
17253;SDS011;32542;52.832;13.816;2022-07-23T02:20:18;3.50;;;2.90;;
17253;SDS011;32542;52.832;13.816;2022-07-23T02:23:21;3.35;;;2.92;;
17253;SDS011;32542;52.832;13.816;2022-07-23T02:26:26;3.58;;;3.00;;
17253;SDS011;32542;52.832;13.816;2022-07-23T02:29:29;5.88;;;3.08;;
17253;SDS011;32542;52.832;13.816;2022-07-23T02:32:32;3.58;;;3.15;;
17253;SDS011;32542;52.832;13.816;2022-07-23T02:35:35;3.17;;;2.75;;
17253;SDS011;32542;52.832;13.816;2022-07-23T02:38:38;6.90;;;3.33;;
17253;SDS011;32542;52.832;13.816;2022-07-23T02:41:42;3.40;;;2.80;;
17253;SDS011;32542;52.832;13.816;2022-07-23T02:44:45;3.08;;;2.78;;
17253;SDS011;32542;52.832;13.816;2022-07-23T02:47:48;4.20;;;3.33;;
17253;SDS011;32542;52.832;13.816;2022-07-23T02:50:51;3.65;;;3.00;;
17253;SDS011;32542;52.832;13.816;2022-07-23T02:54:02;4.88;;;3.05;;
17253;SDS011;32542;52.832;13.816;2022-07-23T02:57:06;4.10;;;3.30;;
17253;SDS011;32542;52.832;13.816;2022-07-23T03:00:10;4.07;;;3.20;;
17253;SDS011;32542;52.832;13.816;2022-07-23T03:03:13;3.50;;;3.13;;
17253;SDS011;32542;52.832;13.816;2022-07-23T03:06:16;5.80;;;3.45;;
17253;SDS011;32542;52.832;13.816;2022-07-23T03:09:19;5.05;;;3.28;;
17253;SDS011;32542;52.832;13.816;2022-07-23T03:12:24;4.25;;;3.10;;
17253;SDS011;32542;52.832;13.816;2022-07-23T03:15:27;3.70;;;2.97;;
17253;SDS011;32542;52.832;13.816;2022-07-23T03:18:30;4.65;;;3.30;;
17253;SDS011;32542;52.832;13.816;2022-07-23T03:21:40;3.58;;;3.20;;
17253;SDS011;32542;52.832;13.816;2022-07-23T03:24:43;4.32;;;3.10;;
17253;SDS011;32542;52.832;13.816;2022-07-23T03:28:04;4.65;;;3.22;;
17253;SDS011;32542;52.832;13.816;2022-07-23T03:31:07;3.40;;;3.10;;
17253;SDS011;32542;52.832;13.816;2022-07-23T03:34:12;4.20;;;3.20;;
17253;SDS011;32542;52.832;13.816;2022-07-23T03:37:15;4.15;;;3.10;;
17253;SDS011;32542;52.832;13.816;2022-07-23T03:40:19;5.32;;;3.17;;
17253;SDS011;32542;52.832;13.816;2022-07-23T03:43:24;3.60;;;3.30;;
17253;SDS011;32542;52.832;13.816;2022-07-23T03:46:27;4.75;;;3.53;;
17253;SDS011;32542;52.832;13.816;2022-07-23T03:49:30;5.20;;;3.38;;
17253;SDS011;32542;52.832;13.816;2022-07-23T03:52:34;4.00;;;3.40;;
17253;SDS011;32542;52.832;13.816;2022-07-23T03:55:37;6.55;;;3.40;;
17253;SDS011;32542;52.832;13.816;2022-07-23T03:58:41;8.13;;;3.38;;
17253;SDS011;32542;52.832;13.816;2022-07-23T04:01:46;3.55;;;3.25;;
17253;SDS011;32542;52.832;13.816;2022-07-23T04:04:50;4.15;;;3.00;;
17253;SDS011;32542;52.832;13.816;2022-07-23T04:07:53;5.32;;;3.28;;
17253;SDS011;32542;52.832;13.816;2022-07-23T04:10:56;5.22;;;3.00;;
17253;SDS011;32542;52.832;13.816;2022-07-23T04:14:01;3.78;;;2.95;;
17253;SDS011;32542;52.832;13.816;2022-07-23T04:17:04;5.35;;;3.22;;
17253;SDS011;32542;52.832;13.816;2022-07-23T04:20:08;7.25;;;3.05;;
17253;SDS011;32542;52.832;13.816;2022-07-23T04:23:20;4.50;;;2.95;;
17253;SDS011;32542;52.832;13.816;2022-07-23T04:26:27;6.13;;;3.00;;
17253;SDS011;32542;52.832;13.816;2022-07-23T04:29:31;4.40;;;2.75;;
17253;SDS011;32542;52.832;13.816;2022-07-23T04:32:34;3.78;;;2.92;;
17253;SDS011;32542;52.832;13.816;2022-07-23T04:35:43;2.97;;;2.67;;
17253;SDS011;32542;52.832;13.816;2022-07-23T04:38:52;4.95;;;2.85;;
17253;SDS011;32542;52.832;13.816;2022-07-23T04:41:55;3.25;;;2.30;;
17253;SDS011;32542;52.832;13.816;2022-07-23T04:44:59;5.10;;;2.55;;
17253;SDS011;32542;52.832;13.816;2022-07-23T04:48:03;4.03;;;2.58;;
17253;SDS011;32542;52.832;13.816;2022-07-23T04:51:07;4.28;;;2.83;;
17253;SDS011;32542;52.832;13.816;2022-07-23T04:54:10;7.18;;;2.80;;
17253;SDS011;32542;52.832;13.816;2022-07-23T04:57:13;7.13;;;2.50;;
17253;SDS011;32542;52.832;13.816;2022-07-23T05:00:17;3.72;;;2.50;;
17253;SDS011;32542;52.832;13.816;2022-07-23T05:03:20;4.57;;;2.60;;
17253;SDS011;32542;52.832;13.816;2022-07-23T05:06:23;5.95;;;2.55;;
17253;SDS011;32542;52.832;13.816;2022-07-23T05:09:27;6.85;;;2.72;;
17253;SDS011;32542;52.832;13.816;2022-07-23T05:12:30;4.05;;;2.13;;
17253;SDS011;32542;52.832;13.816;2022-07-23T05:15:35;3.20;;;2.40;;
17253;SDS011;32542;52.832;13.816;2022-07-23T05:18:38;4.80;;;2.40;;
17253;SDS011;32542;52.832;13.816;2022-07-23T05:21:41;5.50;;;2.53;;
17253;SDS011;32542;52.832;13.816;2022-07-23T05:24:45;5.40;;;2.97;;
17253;SDS011;32542;52.832;13.816;2022-07-23T05:27:48;6.50;;;2.83;;
17253;SDS011;32542;52.832;13.816;2022-07-23T05:30:52;5.50;;;2.50;;
17253;SDS011;32542;52.832;13.816;2022-07-23T05:33:57;3.20;;;2.10;;
17253;SDS011;32542;52.832;13.816;2022-07-23T05:37:00;5.25;;;2.63;;
17253;SDS011;32542;52.832;13.816;2022-07-23T05:40:04;2.92;;;2.30;;
17253;SDS011;32542;52.832;13.816;2022-07-23T05:43:08;5.00;;;2.67;;
17253;SDS011;32542;52.832;13.816;2022-07-23T05:46:13;7.28;;;2.30;;
17253;SDS011;32542;52.832;13.816;2022-07-23T05:49:20;3.90;;;2.47;;
17253;SDS011;32542;52.832;13.816;2022-07-23T05:52:41;4.55;;;2.47;;
17253;SDS011;32542;52.832;13.816;2022-07-23T05:56:03;4.82;;;2.55;;
17253;SDS011;32542;52.832;13.816;2022-07-23T05:59:06;5.15;;;2.58;;
17253;SDS011;32542;52.832;13.816;2022-07-23T06:02:11;6.32;;;2.40;;
17253;SDS011;32542;52.832;13.816;2022-07-23T06:05:14;4.25;;;2.38;;
17253;SDS011;32542;52.832;13.816;2022-07-23T06:08:18;4.93;;;2.20;;
17253;SDS011;32542;52.832;13.816;2022-07-23T06:11:22;4.13;;;2.28;;
17253;SDS011;32542;52.832;13.816;2022-07-23T06:14:24;5.88;;;2.28;;
17253;SDS011;32542;52.832;13.816;2022-07-23T06:17:31;5.28;;;2.60;;
17253;SDS011;32542;52.832;13.816;2022-07-23T06:20:34;4.47;;;2.22;;
17253;SDS011;32542;52.832;13.816;2022-07-23T06:23:38;4.22;;;2.00;;
17253;SDS011;32542;52.832;13.816;2022-07-23T06:26:42;3.35;;;1.95;;
17253;SDS011;32542;52.832;13.816;2022-07-23T06:29:46;3.20;;;1.83;;
17253;SDS011;32542;52.832;13.816;2022-07-23T06:32:50;4.45;;;2.22;;
17253;SDS011;32542;52.832;13.816;2022-07-23T06:35:53;6.32;;;2.05;;
17253;SDS011;32542;52.832;13.816;2022-07-23T06:38:57;2.88;;;1.83;;
17253;SDS011;32542;52.832;13.816;2022-07-23T06:42:01;4.82;;;2.15;;
17253;SDS011;32542;52.832;13.816;2022-07-23T06:45:13;4.85;;;1.80;;
17253;SDS011;32542;52.832;13.816;2022-07-23T06:48:17;4.35;;;1.80;;
17253;SDS011;32542;52.832;13.816;2022-07-23T06:51:20;2.85;;;1.67;;
17253;SDS011;32542;52.832;13.816;2022-07-23T06:54:23;3.92;;;1.70;;
17253;SDS011;32542;52.832;13.816;2022-07-23T06:57:26;3.95;;;1.88;;
17253;SDS011;32542;52.832;13.816;2022-07-23T07:00:32;4.78;;;2.20;;
17253;SDS011;32542;52.832;13.816;2022-07-23T07:03:37;7.10;;;2.13;;
17253;SDS011;32542;52.832;13.816;2022-07-23T07:06:40;4.43;;;2.17;;
17253;SDS011;32542;52.832;13.816;2022-07-23T07:09:43;4.65;;;1.90;;
17253;SDS011;32542;52.832;13.816;2022-07-23T07:12:49;4.75;;;2.13;;
17253;SDS011;32542;52.832;13.816;2022-07-23T07:15:52;4.13;;;1.70;;
17253;SDS011;32542;52.832;13.816;2022-07-23T07:18:57;4.90;;;1.88;;
17253;SDS011;32542;52.832;13.816;2022-07-23T07:22:00;5.15;;;2.15;;
17253;SDS011;32542;52.832;13.816;2022-07-23T07:25:05;4.32;;;1.90;;
17253;SDS011;32542;52.832;13.816;2022-07-23T07:28:08;4.00;;;1.90;;
17253;SDS011;32542;52.832;13.816;2022-07-23T07:31:11;4.75;;;2.13;;
17253;SDS011;32542;52.832;13.816;2022-07-23T07:34:16;6.65;;;1.92;;
17253;SDS011;32542;52.832;13.816;2022-07-23T07:37:20;5.05;;;1.90;;
17253;SDS011;32542;52.832;13.816;2022-07-23T07:40:23;3.85;;;1.83;;
17253;SDS011;32542;52.832;13.816;2022-07-23T07:43:34;5.57;;;2.13;;
17253;SDS011;32542;52.832;13.816;2022-07-23T07:46:37;3.72;;;2.15;;
17253;SDS011;32542;52.832;13.816;2022-07-23T07:49:41;4.32;;;1.88;;
17253;SDS011;32542;52.832;13.816;2022-07-23T07:52:44;5.60;;;2.10;;
17253;SDS011;32542;52.832;13.816;2022-07-23T07:55:47;3.35;;;1.88;;
17253;SDS011;32542;52.832;13.816;2022-07-23T07:58:52;6.32;;;2.03;;
17253;SDS011;32542;52.832;13.816;2022-07-23T08:01:55;3.63;;;1.80;;
17253;SDS011;32542;52.832;13.816;2022-07-23T08:04:59;4.53;;;2.13;;
17253;SDS011;32542;52.832;13.816;2022-07-23T08:08:02;3.72;;;2.10;;
17253;SDS011;32542;52.832;13.816;2022-07-23T08:11:05;4.75;;;2.25;;
17253;SDS011;32542;52.832;13.816;2022-07-23T08:14:08;5.57;;;2.22;;
17253;SDS011;32542;52.832;13.816;2022-07-23T08:17:12;3.97;;;2.72;;
17253;SDS011;32542;52.832;13.816;2022-07-23T08:20:18;5.22;;;1.98;;
17253;SDS011;32542;52.832;13.816;2022-07-23T08:23:23;4.93;;;2.03;;
17253;SDS011;32542;52.832;13.816;2022-07-23T08:26:30;5.22;;;2.30;;
17253;SDS011;32542;52.832;13.816;2022-07-23T08:29:33;2.97;;;1.75;;
17253;SDS011;32542;52.832;13.816;2022-07-23T08:32:50;3.55;;;2.35;;
17253;SDS011;32542;52.832;13.816;2022-07-23T08:35:55;6.05;;;2.33;;
17253;SDS011;32542;52.832;13.816;2022-07-23T08:38:58;4.05;;;2.25;;
17253;SDS011;32542;52.832;13.816;2022-07-23T08:42:03;3.53;;;2.08;;
17253;SDS011;32542;52.832;13.816;2022-07-23T08:45:07;4.18;;;2.10;;
17253;SDS011;32542;52.832;13.816;2022-07-23T08:48:11;4.15;;;2.03;;
17253;SDS011;32542;52.832;13.816;2022-07-23T08:51:17;3.50;;;1.98;;
17253;SDS011;32542;52.832;13.816;2022-07-23T08:54:20;6.55;;;2.20;;
17253;SDS011;32542;52.832;13.816;2022-07-23T08:57:24;8.68;;;2.42;;
17253;SDS011;32542;52.832;13.816;2022-07-23T09:00:27;6.43;;;2.10;;
17253;SDS011;32542;52.832;13.816;2022-07-23T09:03:31;5.20;;;2.20;;
17253;SDS011;32542;52.832;13.816;2022-07-23T09:06:36;4.75;;;2.10;;
17253;SDS011;32542;52.832;13.816;2022-07-23T09:09:41;5.50;;;2.00;;
17253;SDS011;32542;52.832;13.816;2022-07-23T09:12:44;3.17;;;1.90;;
17253;SDS011;32542;52.832;13.816;2022-07-23T09:15:48;4.25;;;1.65;;
17253;SDS011;32542;52.832;13.816;2022-07-23T09:18:55;4.07;;;1.85;;
17253;SDS011;32542;52.832;13.816;2022-07-23T09:22:06;6.43;;;1.80;;
17253;SDS011;32542;52.832;13.816;2022-07-23T09:25:19;5.28;;;1.83;;
17253;SDS011;32542;52.832;13.816;2022-07-23T09:28:22;3.05;;;1.90;;
17253;SDS011;32542;52.832;13.816;2022-07-23T09:31:25;5.18;;;1.70;;
17253;SDS011;32542;52.832;13.816;2022-07-23T09:34:33;6.45;;;2.63;;
17253;SDS011;32542;52.832;13.816;2022-07-23T09:37:41;4.15;;;1.45;;
17253;SDS011;32542;52.832;13.816;2022-07-23T09:41:06;4.13;;;1.52;;
17253;SDS011;32542;52.832;13.816;2022-07-23T09:44:11;2.45;;;1.55;;
17253;SDS011;32542;52.832;13.816;2022-07-23T09:47:17;5.65;;;1.70;;
17253;SDS011;32542;52.832;13.816;2022-07-23T09:50:21;3.13;;;1.63;;
17253;SDS011;32542;52.832;13.816;2022-07-23T09:53:29;3.45;;;1.48;;
17253;SDS011;32542;52.832;13.816;2022-07-23T09:56:32;3.15;;;1.60;;
17253;SDS011;32542;52.832;13.816;2022-07-23T09:59:38;3.13;;;1.75;;
17253;SDS011;32542;52.832;13.816;2022-07-23T10:02:41;4.85;;;1.70;;
17253;SDS011;32542;52.832;13.816;2022-07-23T10:06:03;4.93;;;2.08;;
17253;SDS011;32542;52.832;13.816;2022-07-23T10:09:28;7.10;;;2.20;;
17253;SDS011;32542;52.832;13.816;2022-07-23T10:12:57;3.63;;;2.45;;
17253;SDS011;32542;52.832;13.816;2022-07-23T10:16:22;7.53;;;3.40;;
17253;SDS011;32542;52.832;13.816;2022-07-23T10:19:28;3.88;;;1.90;;
17253;SDS011;32542;52.832;13.816;2022-07-23T10:22:33;5.30;;;2.00;;
17253;SDS011;32542;52.832;13.816;2022-07-23T10:25:41;7.45;;;2.50;;
17253;SDS011;32542;52.832;13.816;2022-07-23T10:28:56;5.00;;;2.00;;
17253;SDS011;32542;52.832;13.816;2022-07-23T10:32:14;4.00;;;2.10;;
17253;SDS011;32542;52.832;13.816;2022-07-23T10:35:25;28.55;;;2.95;;
17253;SDS011;32542;52.832;13.816;2022-07-23T10:38:33;5.53;;;2.50;;
17253;SDS011;32542;52.832;13.816;2022-07-23T10:41:43;6.43;;;2.67;;
17253;SDS011;32542;52.832;13.816;2022-07-23T10:44:46;6.97;;;2.15;;
17253;SDS011;32542;52.832;13.816;2022-07-23T10:47:50;4.20;;;2.47;;
17253;SDS011;32542;52.832;13.816;2022-07-23T10:51:06;7.78;;;2.42;;
17253;SDS011;32542;52.832;13.816;2022-07-23T10:54:20;10.60;;;2.30;;
17253;SDS011;32542;52.832;13.816;2022-07-23T10:57:25;3.30;;;2.30;;
17253;SDS011;32542;52.832;13.816;2022-07-23T11:00:29;4.00;;;2.17;;
17253;SDS011;32542;52.832;13.816;2022-07-23T11:03:33;3.70;;;2.13;;
17253;SDS011;32542;52.832;13.816;2022-07-23T11:10:23;5.20;;;2.15;;
17253;SDS011;32542;52.832;13.816;2022-07-23T11:13:40;4.53;;;2.40;;
17253;SDS011;32542;52.832;13.816;2022-07-23T11:16:47;3.80;;;1.92;;
17253;SDS011;32542;52.832;13.816;2022-07-23T11:23:17;7.88;;;2.30;;
17253;SDS011;32542;52.832;13.816;2022-07-23T11:29:50;2.90;;;1.92;;
17253;SDS011;32542;52.832;13.816;2022-07-23T11:32:53;4.07;;;2.00;;
17253;SDS011;32542;52.832;13.816;2022-07-23T11:36:00;4.32;;;2.08;;
17253;SDS011;32542;52.832;13.816;2022-07-23T11:39:05;5.45;;;2.00;;
17253;SDS011;32542;52.832;13.816;2022-07-23T11:42:09;3.65;;;2.10;;
17253;SDS011;32542;52.832;13.816;2022-07-23T11:45:14;4.65;;;2.38;;
17253;SDS011;32542;52.832;13.816;2022-07-23T11:48:17;6.30;;;2.28;;
17253;SDS011;32542;52.832;13.816;2022-07-23T11:51:24;3.80;;;2.10;;
17253;SDS011;32542;52.832;13.816;2022-07-23T11:54:28;3.08;;;1.95;;
17253;SDS011;32542;52.832;13.816;2022-07-23T11:57:36;3.72;;;2.22;;
17253;SDS011;32542;52.832;13.816;2022-07-23T12:00:42;6.20;;;2.10;;
17253;SDS011;32542;52.832;13.816;2022-07-23T12:03:49;5.50;;;2.40;;
17253;SDS011;32542;52.832;13.816;2022-07-23T12:06:52;4.03;;;2.00;;
17253;SDS011;32542;52.832;13.816;2022-07-23T12:09:56;6.03;;;2.92;;
17253;SDS011;32542;52.832;13.816;2022-07-23T12:13:01;4.43;;;2.08;;
17253;SDS011;32542;52.832;13.816;2022-07-23T12:16:07;4.47;;;2.38;;
17253;SDS011;32542;52.832;13.816;2022-07-23T12:19:11;5.38;;;2.22;;
17253;SDS011;32542;52.832;13.816;2022-07-23T12:22:15;3.47;;;2.00;;
17253;SDS011;32542;52.832;13.816;2022-07-23T12:25:19;4.60;;;2.30;;
17253;SDS011;32542;52.832;13.816;2022-07-23T12:28:27;5.50;;;2.40;;
17253;SDS011;32542;52.832;13.816;2022-07-23T12:31:32;3.65;;;2.22;;
17253;SDS011;32542;52.832;13.816;2022-07-23T12:34:36;6.15;;;2.10;;
17253;SDS011;32542;52.832;13.816;2022-07-23T12:37:40;4.25;;;2.30;;
17253;SDS011;32542;52.832;13.816;2022-07-23T12:40:45;4.53;;;2.15;;
17253;SDS011;32542;52.832;13.816;2022-07-23T12:43:49;4.30;;;2.20;;
17253;SDS011;32542;52.832;13.816;2022-07-23T12:46:54;4.80;;;2.20;;
17253;SDS011;32542;52.832;13.816;2022-07-23T12:49:57;5.78;;;2.30;;
17253;SDS011;32542;52.832;13.816;2022-07-23T12:53:03;2.78;;;1.90;;
17253;SDS011;32542;52.832;13.816;2022-07-23T12:56:14;5.40;;;2.20;;
17253;SDS011;32542;52.832;13.816;2022-07-23T12:59:21;4.30;;;2.33;;
17253;SDS011;32542;52.832;13.816;2022-07-23T13:02:25;3.70;;;2.17;;
17253;SDS011;32542;52.832;13.816;2022-07-23T13:05:29;10.18;;;2.17;;
17253;SDS011;32542;52.832;13.816;2022-07-23T13:08:32;5.55;;;2.50;;
17253;SDS011;32542;52.832;13.816;2022-07-23T13:11:36;3.10;;;2.00;;
17253;SDS011;32542;52.832;13.816;2022-07-23T13:14:39;4.45;;;2.17;;
17253;SDS011;32542;52.832;13.816;2022-07-23T13:17:44;4.60;;;2.00;;
17253;SDS011;32542;52.832;13.816;2022-07-23T13:20:47;2.70;;;2.08;;
17253;SDS011;32542;52.832;13.816;2022-07-23T13:23:51;3.67;;;1.90;;
17253;SDS011;32542;52.832;13.816;2022-07-23T13:26:54;6.25;;;2.33;;
17253;SDS011;32542;52.832;13.816;2022-07-23T13:29:57;11.35;;;3.25;;
17253;SDS011;32542;52.832;13.816;2022-07-23T13:33:02;3.38;;;1.80;;
17253;SDS011;32542;52.832;13.816;2022-07-23T13:36:07;3.38;;;2.42;;
17253;SDS011;32542;52.832;13.816;2022-07-23T13:39:10;4.57;;;2.40;;
17253;SDS011;32542;52.832;13.816;2022-07-23T13:42:13;3.30;;;2.13;;
17253;SDS011;32542;52.832;13.816;2022-07-23T13:45:16;6.10;;;2.58;;
17253;SDS011;32542;52.832;13.816;2022-07-23T13:48:20;7.45;;;2.33;;
17253;SDS011;32542;52.832;13.816;2022-07-23T13:51:24;4.65;;;2.40;;
17253;SDS011;32542;52.832;13.816;2022-07-23T13:54:29;5.40;;;2.25;;
17253;SDS011;32542;52.832;13.816;2022-07-23T13:57:32;3.97;;;2.47;;
17253;SDS011;32542;52.832;13.816;2022-07-23T14:00:36;5.25;;;2.15;;
17253;SDS011;32542;52.832;13.816;2022-07-23T14:03:54;6.70;;;3.03;;
17253;SDS011;32542;52.832;13.816;2022-07-23T14:06:58;6.40;;;2.20;;
17253;SDS011;32542;52.832;13.816;2022-07-23T14:10:02;5.25;;;2.00;;
17253;SDS011;32542;52.832;13.816;2022-07-23T14:13:08;5.75;;;1.90;;
17253;SDS011;32542;52.832;13.816;2022-07-23T14:16:11;3.85;;;1.85;;
17253;SDS011;32542;52.832;13.816;2022-07-23T14:19:17;5.53;;;2.08;;
17253;SDS011;32542;52.832;13.816;2022-07-23T14:22:20;5.18;;;2.20;;
17253;SDS011;32542;52.832;13.816;2022-07-23T14:25:23;2.55;;;1.73;;
17253;SDS011;32542;52.832;13.816;2022-07-23T14:28:27;3.72;;;2.08;;
17253;SDS011;32542;52.832;13.816;2022-07-23T14:31:30;5.25;;;1.83;;
17253;SDS011;32542;52.832;13.816;2022-07-23T14:34:34;4.00;;;1.70;;
17253;SDS011;32542;52.832;13.816;2022-07-23T14:37:39;7.18;;;2.13;;
17253;SDS011;32542;52.832;13.816;2022-07-23T14:40:43;2.70;;;1.60;;
17253;SDS011;32542;52.832;13.816;2022-07-23T14:43:48;3.40;;;2.20;;
17253;SDS011;32542;52.832;13.816;2022-07-23T14:46:52;4.90;;;1.70;;
17253;SDS011;32542;52.832;13.816;2022-07-23T14:49:57;3.20;;;1.60;;
17253;SDS011;32542;52.832;13.816;2022-07-23T14:53:00;3.45;;;1.10;;
17253;SDS011;32542;52.832;13.816;2022-07-23T14:56:04;4.28;;;1.55;;
17253;SDS011;32542;52.832;13.816;2022-07-23T14:59:07;2.63;;;1.52;;
17253;SDS011;32542;52.832;13.816;2022-07-23T15:02:10;4.07;;;1.73;;
17253;SDS011;32542;52.832;13.816;2022-07-23T15:05:15;2.70;;;1.35;;
17253;SDS011;32542;52.832;13.816;2022-07-23T15:08:19;3.90;;;1.42;;
17253;SDS011;32542;52.832;13.816;2022-07-23T15:11:24;3.00;;;1.45;;
17253;SDS011;32542;52.832;13.816;2022-07-23T15:14:27;1.63;;;1.25;;
17253;SDS011;32542;52.832;13.816;2022-07-23T15:17:35;2.83;;;1.50;;
17253;SDS011;32542;52.832;13.816;2022-07-23T15:20:40;3.33;;;1.20;;
17253;SDS011;32542;52.832;13.816;2022-07-23T15:23:43;5.57;;;1.52;;
17253;SDS011;32542;52.832;13.816;2022-07-23T15:26:46;1.75;;;1.40;;
17253;SDS011;32542;52.832;13.816;2022-07-23T15:29:48;4.55;;;1.50;;
17253;SDS011;32542;52.832;13.816;2022-07-23T15:32:51;3.20;;;1.27;;
17253;SDS011;32542;52.832;13.816;2022-07-23T15:35:56;4.50;;;1.45;;
17253;SDS011;32542;52.832;13.816;2022-07-23T15:39:00;4.15;;;1.20;;
17253;SDS011;32542;52.832;13.816;2022-07-23T15:42:04;2.08;;;1.00;;
17253;SDS011;32542;52.832;13.816;2022-07-23T15:45:15;2.70;;;1.25;;
17253;SDS011;32542;52.832;13.816;2022-07-23T15:48:19;3.05;;;1.10;;
17253;SDS011;32542;52.832;13.816;2022-07-23T15:51:24;6.15;;;1.27;;
17253;SDS011;32542;52.832;13.816;2022-07-23T15:54:27;2.03;;;1.10;;
17253;SDS011;32542;52.832;13.816;2022-07-23T15:57:30;1.15;;;0.88;;
17253;SDS011;32542;52.832;13.816;2022-07-23T16:00:35;2.83;;;1.05;;
17253;SDS011;32542;52.832;13.816;2022-07-23T16:03:38;2.45;;;1.27;;
17253;SDS011;32542;52.832;13.816;2022-07-23T16:06:43;3.17;;;1.33;;
17253;SDS011;32542;52.832;13.816;2022-07-23T16:09:46;5.07;;;1.05;;
17253;SDS011;32542;52.832;13.816;2022-07-23T16:12:49;2.88;;;1.13;;
17253;SDS011;32542;52.832;13.816;2022-07-23T16:15:53;1.25;;;1.08;;
17253;SDS011;32542;52.832;13.816;2022-07-23T16:18:56;2.22;;;1.17;;
17253;SDS011;32542;52.832;13.816;2022-07-23T16:22:00;4.20;;;1.00;;
17253;SDS011;32542;52.832;13.816;2022-07-23T16:25:04;3.65;;;0.90;;
17253;SDS011;32542;52.832;13.816;2022-07-23T16:28:08;3.67;;;1.48;;
17253;SDS011;32542;52.832;13.816;2022-07-23T16:31:11;1.77;;;1.00;;
17253;SDS011;32542;52.832;13.816;2022-07-23T16:34:14;0.98;;;0.93;;
17253;SDS011;32542;52.832;13.816;2022-07-23T16:37:18;2.47;;;1.15;;
17253;SDS011;32542;52.832;13.816;2022-07-23T16:40:21;1.70;;;1.00;;
17253;SDS011;32542;52.832;13.816;2022-07-23T16:43:24;1.98;;;1.15;;
17253;SDS011;32542;52.832;13.816;2022-07-23T16:46:28;5.38;;;1.52;;
17253;SDS011;32542;52.832;13.816;2022-07-23T16:49:31;2.30;;;1.40;;
17253;SDS011;32542;52.832;13.816;2022-07-23T16:52:37;3.88;;;1.48;;
17253;SDS011;32542;52.832;13.816;2022-07-23T16:55:40;3.20;;;1.50;;
17253;SDS011;32542;52.832;13.816;2022-07-23T16:58:43;2.45;;;1.40;;
17253;SDS011;32542;52.832;13.816;2022-07-23T17:01:46;2.40;;;1.40;;
17253;SDS011;32542;52.832;13.816;2022-07-23T17:04:49;3.60;;;1.55;;
17253;SDS011;32542;52.832;13.816;2022-07-23T17:07:54;5.50;;;1.98;;
17253;SDS011;32542;52.832;13.816;2022-07-23T17:10:57;3.03;;;1.73;;
17253;SDS011;32542;52.832;13.816;2022-07-23T17:14:00;3.65;;;1.80;;
17253;SDS011;32542;52.832;13.816;2022-07-23T17:17:03;2.90;;;2.08;;
17253;SDS011;32542;52.832;13.816;2022-07-23T17:20:07;2.40;;;2.00;;
17253;SDS011;32542;52.832;13.816;2022-07-23T17:23:12;2.65;;;1.77;;
17253;SDS011;32542;52.832;13.816;2022-07-23T17:26:15;7.60;;;1.77;;
17253;SDS011;32542;52.832;13.816;2022-07-23T17:29:21;9.40;;;1.73;;
17253;SDS011;32542;52.832;13.816;2022-07-23T17:32:24;2.30;;;1.30;;
17253;SDS011;32542;52.832;13.816;2022-07-23T17:35:27;1.88;;;1.30;;
17253;SDS011;32542;52.832;13.816;2022-07-23T17:38:32;4.10;;;1.50;;
17253;SDS011;32542;52.832;13.816;2022-07-23T17:41:35;4.32;;;1.40;;
17253;SDS011;32542;52.832;13.816;2022-07-23T17:44:38;4.03;;;1.25;;
17253;SDS011;32542;52.832;13.816;2022-07-23T17:47:41;3.17;;;1.20;;
17253;SDS011;32542;52.832;13.816;2022-07-23T17:50:45;4.22;;;1.35;;
17253;SDS011;32542;52.832;13.816;2022-07-23T17:53:56;1.48;;;1.15;;
17253;SDS011;32542;52.832;13.816;2022-07-23T17:56:59;3.25;;;0.98;;
17253;SDS011;32542;52.832;13.816;2022-07-23T18:00:08;6.93;;;2.08;;
17253;SDS011;32542;52.832;13.816;2022-07-23T18:03:13;3.00;;;1.13;;
17253;SDS011;32542;52.832;13.816;2022-07-23T18:06:17;2.13;;;1.02;;
17253;SDS011;32542;52.832;13.816;2022-07-23T18:09:22;3.08;;;1.00;;
17253;SDS011;32542;52.832;13.816;2022-07-23T18:12:25;3.92;;;1.40;;
17253;SDS011;32542;52.832;13.816;2022-07-23T18:15:28;1.55;;;1.17;;
17253;SDS011;32542;52.832;13.816;2022-07-23T18:18:31;3.10;;;1.00;;
17253;SDS011;32542;52.832;13.816;2022-07-23T18:21:36;2.63;;;1.00;;
17253;SDS011;32542;52.832;13.816;2022-07-23T18:24:41;1.92;;;1.00;;
17253;SDS011;32542;52.832;13.816;2022-07-23T18:27:43;1.20;;;0.90;;